Archival Weather

Chicago O'Hare International

Chicago, Illinois (KORD)

Report from: Tuesday, October 31, 2023 3:51 AM CDT
Current time: Tuesday, June 18, 2024 6:25 AM CDT

Current weather – Weather history – Daily summaries
Weather forecast

Temperature-1.1°C (30.0°F)
Wind chill-4.9°C (23.2°F)
Dew point-6.7°C (19.9°F)
Winds 6 kts (3.1 m/s, 6.9 mph) South-Southwest (200°)
Visibility10 mi. (16.1 km)
Clouds Few clouds 14,000 ft. (4,267 m)
Altimeter30.10 in.Hg (1019 mB)
Relative humidity66 %
Density altitude-2,139 ft. (-652 m)
Sea-level pressure102.0 kPa (1020 mB, 30.12 in.Hg)
Remarks System requires maintenance
Automated weather observing station with precipitation discriminator
Pressure falling more quickly
Flight conditions Visual Meteorological Conditions
Raw dataKORD 310851Z 20006KT 10SM FEW140 M01/M07 A3010 RMK AO2 SLP199 T10111067 58017 $
An error has occurred. This application may no longer respond until reloaded. Reload 🗙